sensor_id;sensor_type;location;lat;lon;timestamp;P1;P2;P0
20157;PMS5003;10239;56.820;24.416;2023-12-29T00:00:33;4.60;4.60;1.00
20157;PMS5003;10239;56.820;24.416;2023-12-29T00:03:01;7.60;5.00;2.40
20157;PMS5003;10239;56.820;24.416;2023-12-29T00:05:29;6.80;5.00;2.00
20157;PMS5003;10239;56.820;24.416;2023-12-29T00:07:57;4.80;4.00;2.80
20157;PMS5003;10239;56.820;24.416;2023-12-29T00:10:27;4.00;1.60;0.00
20157;PMS5003;10239;56.820;24.416;2023-12-29T00:12:54;5.00;2.80;1.00
20157;PMS5003;10239;56.820;24.416;2023-12-29T00:15:22;1.40;1.40;1.00
20157;PMS5003;10239;56.820;24.416;2023-12-29T00:17:50;2.80;1.80;1.00
20157;PMS5003;10239;56.820;24.416;2023-12-29T00:20:20;4.20;3.60;1.40
20157;PMS5003;10239;56.820;24.416;2023-12-29T00:23:03;2.00;2.00;1.00
20157;PMS5003;10239;56.820;24.416;2023-12-29T00:25:31;5.00;2.00;1.00
20157;PMS5003;10239;56.820;24.416;2023-12-29T00:27:58;7.20;2.00;1.00
20157;PMS5003;10239;56.820;24.416;2023-12-29T00:30:26;6.80;4.40;1.60
20157;PMS5003;10239;56.820;24.416;2023-12-29T00:33:15;5.00;2.00;1.00
20157;PMS5003;10239;56.820;24.416;2023-12-29T00:35:43;6.20;2.80;1.00
20157;PMS5003;10239;56.820;24.416;2023-12-29T00:38:10;3.00;2.00;2.00
20157;PMS5003;10239;56.820;24.416;2023-12-29T00:40:38;7.00;4.00;1.00
20157;PMS5003;10239;56.820;24.416;2023-12-29T00:43:05;1.00;1.00;0.20
20157;PMS5003;10239;56.820;24.416;2023-12-29T00:45:34;1.00;1.00;0.20
20157;PMS5003;10239;56.820;24.416;2023-12-29T00:48:03;3.60;1.80;1.00
20157;PMS5003;10239;56.820;24.416;2023-12-29T00:50:31;1.80;1.80;0.00
20157;PMS5003;10239;56.820;24.416;2023-12-29T00:52:59;4.80;4.20;0.80
20157;PMS5003;10239;56.820;24.416;2023-12-29T00:55:27;1.80;0.20;0.00
20157;PMS5003;10239;56.820;24.416;2023-12-29T00:57:56;1.60;1.60;0.00
20157;PMS5003;10239;56.820;24.416;2023-12-29T01:00:24;2.00;2.00;1.00
20157;PMS5003;10239;56.820;24.416;2023-12-29T01:02:51;4.00;4.00;1.00
20157;PMS5003;10239;56.820;24.416;2023-12-29T01:05:19;3.20;3.20;1.00
20157;PMS5003;10239;56.820;24.416;2023-12-29T01:07:47;1.20;1.20;0.00
20157;PMS5003;10239;56.820;24.416;2023-12-29T01:10:15;1.60;1.60;0.80
20157;PMS5003;10239;56.820;24.416;2023-12-29T01:12:44;1.40;1.40;0.00
20157;PMS5003;10239;56.820;24.416;2023-12-29T01:15:12;2.00;2.00;1.00
20157;PMS5003;10239;56.820;24.416;2023-12-29T01:17:40;2.80;2.80;1.00
20157;PMS5003;10239;56.820;24.416;2023-12-29T01:20:07;4.80;2.00;1.00
20157;PMS5003;10239;56.820;24.416;2023-12-29T01:22:36;1.00;1.00;0.40
20157;PMS5003;10239;56.820;24.416;2023-12-29T01:25:03;4.20;2.00;0.60
20157;PMS5003;10239;56.820;24.416;2023-12-29T01:27:31;4.40;1.80;0.60
20157;PMS5003;10239;56.820;24.416;2023-12-29T01:29:59;2.80;2.80;1.00
20157;PMS5003;10239;56.820;24.416;2023-12-29T01:32:27;0.60;0.60;0.00
20157;PMS5003;10239;56.820;24.416;2023-12-29T01:34:54;3.60;1.60;0.00
20157;PMS5003;10239;56.820;24.416;2023-12-29T01:37:23;1.00;1.00;0.60
20157;PMS5003;10239;56.820;24.416;2023-12-29T01:39:51;2.00;2.00;0.00
20157;PMS5003;10239;56.820;24.416;2023-12-29T01:42:18;2.00;1.60;0.00
20157;PMS5003;10239;56.820;24.416;2023-12-29T01:44:46;1.00;1.00;0.00
20157;PMS5003;10239;56.820;24.416;2023-12-29T01:47:19;0.00;0.00;0.00
20157;PMS5003;10239;56.820;24.416;2023-12-29T01:49:49;2.80;1.00;0.80
20157;PMS5003;10239;56.820;24.416;2023-12-29T01:52:17;2.40;1.60;1.00
20157;PMS5003;10239;56.820;24.416;2023-12-29T01:54:47;1.00;1.00;0.00
20157;PMS5003;10239;56.820;24.416;2023-12-29T01:57:21;1.40;0.00;0.00
20157;PMS5003;10239;56.820;24.416;2023-12-29T01:59:48;1.00;1.00;0.20
20157;PMS5003;10239;56.820;24.416;2023-12-29T02:02:16;1.40;1.40;0.00
20157;PMS5003;10239;56.820;24.416;2023-12-29T02:04:44;1.00;1.00;0.00
20157;PMS5003;10239;56.820;24.416;2023-12-29T02:07:12;1.00;1.00;0.00
20157;PMS5003;10239;56.820;24.416;2023-12-29T02:09:40;1.80;1.80;0.00
20157;PMS5003;10239;56.820;24.416;2023-12-29T02:12:09;1.20;1.00;0.20
20157;PMS5003;10239;56.820;24.416;2023-12-29T02:14:37;2.00;2.00;0.20
20157;PMS5003;10239;56.820;24.416;2023-12-29T02:17:40;1.80;1.80;0.80
20157;PMS5003;10239;56.820;24.416;2023-12-29T02:20:03;1.00;1.00;0.00
20157;PMS5003;10239;56.820;24.416;2023-12-29T02:22:32;1.00;1.00;0.00
20157;PMS5003;10239;56.820;24.416;2023-12-29T02:24:59;1.00;1.00;0.00
20157;PMS5003;10239;56.820;24.416;2023-12-29T02:30:20;1.40;1.00;0.40
20157;PMS5003;10239;56.820;24.416;2023-12-29T02:32:59;4.60;2.00;1.00
20157;PMS5003;10239;56.820;24.416;2023-12-29T02:35:28;0.60;0.60;0.00
20157;PMS5003;10239;56.820;24.416;2023-12-29T02:38:01;1.00;1.00;0.20
20157;PMS5003;10239;56.820;24.416;2023-12-29T02:40:29;5.00;1.00;0.20
20157;PMS5003;10239;56.820;24.416;2023-12-29T02:42:56;0.80;0.80;0.00
20157;PMS5003;10239;56.820;24.416;2023-12-29T02:45:25;0.00;0.00;0.00
20157;PMS5003;10239;56.820;24.416;2023-12-29T02:47:53;1.80;1.00;0.00
20157;PMS5003;10239;56.820;24.416;2023-12-29T02:50:21;0.80;0.80;0.00
20157;PMS5003;10239;56.820;24.416;2023-12-29T02:52:49;0.00;0.00;0.00
20157;PMS5003;10239;56.820;24.416;2023-12-29T02:55:17;1.00;0.80;0.00
20157;PMS5003;10239;56.820;24.416;2023-12-29T02:57:45;0.20;0.20;0.00
20157;PMS5003;10239;56.820;24.416;2023-12-29T03:00:13;2.20;1.00;0.00
20157;PMS5003;10239;56.820;24.416;2023-12-29T03:02:41;4.00;1.00;0.00
20157;PMS5003;10239;56.820;24.416;2023-12-29T03:05:09;1.20;1.20;0.00
20157;PMS5003;10239;56.820;24.416;2023-12-29T03:07:36;0.20;0.20;0.00
20157;PMS5003;10239;56.820;24.416;2023-12-29T03:10:04;0.00;0.00;0.00
20157;PMS5003;10239;56.820;24.416;2023-12-29T03:12:32;0.20;0.20;0.00
20157;PMS5003;10239;56.820;24.416;2023-12-29T03:15:00;3.40;1.00;0.00
20157;PMS5003;10239;56.820;24.416;2023-12-29T03:17:28;1.40;1.00;0.00
20157;PMS5003;10239;56.820;24.416;2023-12-29T03:19:56;0.60;0.60;0.00
20157;PMS5003;10239;56.820;24.416;2023-12-29T03:22:23;3.40;0.60;0.00
20157;PMS5003;10239;56.820;24.416;2023-12-29T03:24:51;0.20;0.20;0.00
20157;PMS5003;10239;56.820;24.416;2023-12-29T03:27:19;2.00;0.00;0.00
20157;PMS5003;10239;56.820;24.416;2023-12-29T03:29:46;1.00;1.00;0.00
20157;PMS5003;10239;56.820;24.416;2023-12-29T03:32:14;0.00;0.00;0.00
20157;PMS5003;10239;56.820;24.416;2023-12-29T03:34:42;4.20;0.20;0.00
20157;PMS5003;10239;56.820;24.416;2023-12-29T03:37:10;1.00;1.00;0.00
20157;PMS5003;10239;56.820;24.416;2023-12-29T03:39:39;2.40;0.60;0.00
20157;PMS5003;10239;56.820;24.416;2023-12-29T03:42:07;1.40;1.40;0.00
20157;PMS5003;10239;56.820;24.416;2023-12-29T03:44:34;4.60;0.00;0.00
20157;PMS5003;10239;56.820;24.416;2023-12-29T03:47:01;0.00;0.00;0.00
20157;PMS5003;10239;56.820;24.416;2023-12-29T03:49:29;0.00;0.00;0.00
20157;PMS5003;10239;56.820;24.416;2023-12-29T03:51:56;2.40;1.00;0.00
20157;PMS5003;10239;56.820;24.416;2023-12-29T03:54:24;9.20;1.00;0.00
20157;PMS5003;10239;56.820;24.416;2023-12-29T03:56:52;0.00;0.00;0.00
20157;PMS5003;10239;56.820;24.416;2023-12-29T03:59:19;5.60;1.00;0.00
20157;PMS5003;10239;56.820;24.416;2023-12-29T04:01:46;2.00;1.00;0.00
20157;PMS5003;10239;56.820;24.416;2023-12-29T04:04:15;2.00;1.60;0.00
20157;PMS5003;10239;56.820;24.416;2023-12-29T04:06:43;2.80;1.00;0.00
20157;PMS5003;10239;56.820;24.416;2023-12-29T04:09:11;1.00;1.00;0.00
20157;PMS5003;10239;56.820;24.416;2023-12-29T04:11:39;0.20;0.20;0.00
20157;PMS5003;10239;56.820;24.416;2023-12-29T04:14:06;2.60;1.00;0.00
20157;PMS5003;10239;56.820;24.416;2023-12-29T04:16:36;2.00;2.00;0.00
20157;PMS5003;10239;56.820;24.416;2023-12-29T04:19:04;1.00;1.00;0.00
20157;PMS5003;10239;56.820;24.416;2023-12-29T04:21:32;1.00;1.00;0.00
20157;PMS5003;10239;56.820;24.416;2023-12-29T04:24:00;2.00;0.80;0.00
20157;PMS5003;10239;56.820;24.416;2023-12-29T04:26:28;1.00;1.00;0.00
20157;PMS5003;10239;56.820;24.416;2023-12-29T04:28:55;4.60;1.00;0.00
20157;PMS5003;10239;56.820;24.416;2023-12-29T04:31:23;4.00;1.40;0.00
20157;PMS5003;10239;56.820;24.416;2023-12-29T04:33:51;1.40;1.40;0.40
20157;PMS5003;10239;56.820;24.416;2023-12-29T04:36:19;2.60;0.60;0.40
20157;PMS5003;10239;56.820;24.416;2023-12-29T04:38:46;2.00;0.60;0.00
20157;PMS5003;10239;56.820;24.416;2023-12-29T04:41:14;0.00;0.00;0.00
20157;PMS5003;10239;56.820;24.416;2023-12-29T04:43:42;0.60;0.60;0.20
20157;PMS5003;10239;56.820;24.416;2023-12-29T04:46:09;4.80;1.00;0.00
20157;PMS5003;10239;56.820;24.416;2023-12-29T04:48:37;8.40;0.80;0.00
20157;PMS5003;10239;56.820;24.416;2023-12-29T04:51:05;3.00;1.00;1.00
20157;PMS5003;10239;56.820;24.416;2023-12-29T04:53:32;5.40;1.20;0.00
20157;PMS5003;10239;56.820;24.416;2023-12-29T04:56:00;1.00;1.00;0.40
20157;PMS5003;10239;56.820;24.416;2023-12-29T04:58:28;2.80;1.00;0.40
20157;PMS5003;10239;56.820;24.416;2023-12-29T05:00:55;1.00;1.00;0.00
20157;PMS5003;10239;56.820;24.416;2023-12-29T05:03:23;4.00;1.00;0.20
20157;PMS5003;10239;56.820;24.416;2023-12-29T05:05:51;4.60;1.00;0.40
20157;PMS5003;10239;56.820;24.416;2023-12-29T05:08:18;4.00;1.60;0.00
20157;PMS5003;10239;56.820;24.416;2023-12-29T05:10:46;9.60;8.60;3.20
20157;PMS5003;10239;56.820;24.416;2023-12-29T05:13:13;11.40;9.40;4.00
20157;PMS5003;10239;56.820;24.416;2023-12-29T05:15:42;5.40;5.40;1.00
20157;PMS5003;10239;56.820;24.416;2023-12-29T05:18:10;0.60;0.00;0.00
20157;PMS5003;10239;56.820;24.416;2023-12-29T05:20:38;4.00;4.00;1.00
20157;PMS5003;10239;56.820;24.416;2023-12-29T05:23:05;5.00;2.80;1.00
20157;PMS5003;10239;56.820;24.416;2023-12-29T05:25:33;2.80;1.00;0.00
20157;PMS5003;10239;56.820;24.416;2023-12-29T05:28:00;1.20;1.20;1.00
20157;PMS5003;10239;56.820;24.416;2023-12-29T05:30:28;1.80;1.80;0.80
20157;PMS5003;10239;56.820;24.416;2023-12-29T05:32:58;4.80;2.80;1.00
20157;PMS5003;10239;56.820;24.416;2023-12-29T05:35:26;2.00;2.00;0.40
20157;PMS5003;10239;56.820;24.416;2023-12-29T05:37:53;1.60;1.60;0.00
20157;PMS5003;10239;56.820;24.416;2023-12-29T05:40:21;2.00;2.00;0.00
20157;PMS5003;10239;56.820;24.416;2023-12-29T05:42:48;4.00;1.00;0.40
20157;PMS5003;10239;56.820;24.416;2023-12-29T05:45:16;0.80;0.80;0.40
20157;PMS5003;10239;56.820;24.416;2023-12-29T05:47:44;2.40;0.40;0.00
20157;PMS5003;10239;56.820;24.416;2023-12-29T05:50:12;1.60;1.00;0.00
20157;PMS5003;10239;56.820;24.416;2023-12-29T05:52:40;2.00;0.40;0.00
20157;PMS5003;10239;56.820;24.416;2023-12-29T05:55:07;1.60;1.60;1.00
20157;PMS5003;10239;56.820;24.416;2023-12-29T05:57:35;2.40;1.00;0.00
20157;PMS5003;10239;56.820;24.416;2023-12-29T06:00:03;3.20;3.20;0.00
20157;PMS5003;10239;56.820;24.416;2023-12-29T06:02:37;0.80;0.80;0.00
20157;PMS5003;10239;56.820;24.416;2023-12-29T06:05:04;3.40;1.00;0.00
20157;PMS5003;10239;56.820;24.416;2023-12-29T06:07:34;4.40;2.00;0.00
20157;PMS5003;10239;56.820;24.416;2023-12-29T06:10:01;7.00;2.00;0.00
20157;PMS5003;10239;56.820;24.416;2023-12-29T06:12:29;3.20;1.40;1.00
20157;PMS5003;10239;56.820;24.416;2023-12-29T06:14:57;2.00;2.00;0.40
20157;PMS5003;10239;56.820;24.416;2023-12-29T06:17:24;1.00;1.00;0.00
20157;PMS5003;10239;56.820;24.416;2023-12-29T06:19:54;3.60;3.60;0.80
20157;PMS5003;10239;56.820;24.416;2023-12-29T06:22:22;6.40;4.40;1.00
20157;PMS5003;10239;56.820;24.416;2023-12-29T06:24:49;4.40;4.40;1.00
20157;PMS5003;10239;56.820;24.416;2023-12-29T06:27:17;3.60;2.00;0.60
20157;PMS5003;10239;56.820;24.416;2023-12-29T06:29:45;7.20;3.20;0.60
20157;PMS5003;10239;56.820;24.416;2023-12-29T06:32:12;1.00;1.00;0.20
20157;PMS5003;10239;56.820;24.416;2023-12-29T06:34:40;2.80;2.80;1.00
20157;PMS5003;10239;56.820;24.416;2023-12-29T06:37:08;4.60;1.60;1.00
20157;PMS5003;10239;56.820;24.416;2023-12-29T06:39:36;2.00;2.00;0.80
20157;PMS5003;10239;56.820;24.416;2023-12-29T06:42:03;2.20;1.20;0.40
20157;PMS5003;10239;56.820;24.416;2023-12-29T06:44:31;4.00;2.20;0.40
20157;PMS5003;10239;56.820;24.416;2023-12-29T06:46:59;4.20;4.20;1.00
20157;PMS5003;10239;56.820;24.416;2023-12-29T06:49:26;1.00;1.00;0.60
20157;PMS5003;10239;56.820;24.416;2023-12-29T06:51:54;4.00;4.00;1.20
20157;PMS5003;10239;56.820;24.416;2023-12-29T06:54:22;4.20;4.20;1.00
20157;PMS5003;10239;56.820;24.416;2023-12-29T06:56:49;2.60;1.80;1.00
20157;PMS5003;10239;56.820;24.416;2023-12-29T06:59:17;5.20;2.80;0.40
20157;PMS5003;10239;56.820;24.416;2023-12-29T07:01:46;5.80;4.80;2.40
20157;PMS5003;10239;56.820;24.416;2023-12-29T07:04:13;4.80;2.80;1.00
20157;PMS5003;10239;56.820;24.416;2023-12-29T07:06:42;6.80;5.00;2.00
20157;PMS5003;10239;56.820;24.416;2023-12-29T07:09:10;10.80;4.20;2.00
20157;PMS5003;10239;56.820;24.416;2023-12-29T07:11:37;7.40;4.20;1.60
20157;PMS5003;10239;56.820;24.416;2023-12-29T07:14:05;7.20;5.00;2.00
20157;PMS5003;10239;56.820;24.416;2023-12-29T07:16:33;8.20;6.40;1.00
20157;PMS5003;10239;56.820;24.416;2023-12-29T07:19:01;6.40;6.20;2.00
20157;PMS5003;10239;56.820;24.416;2023-12-29T07:21:28;4.00;4.00;1.60
20157;PMS5003;10239;56.820;24.416;2023-12-29T07:23:56;5.80;5.80;2.00
20157;PMS5003;10239;56.820;24.416;2023-12-29T07:26:23;4.40;4.40;2.00
20157;PMS5003;10239;56.820;24.416;2023-12-29T07:28:51;4.40;2.00;1.40
20157;PMS5003;10239;56.820;24.416;2023-12-29T07:31:21;6.20;4.60;2.00
20157;PMS5003;10239;56.820;24.416;2023-12-29T07:33:49;4.40;4.40;2.00
20157;PMS5003;10239;56.820;24.416;2023-12-29T07:36:18;9.60;8.00;4.00
20157;PMS5003;10239;56.820;24.416;2023-12-29T07:38:45;11.40;4.60;2.40
20157;PMS5003;10239;56.820;24.416;2023-12-29T07:41:13;8.80;7.00;2.80
20157;PMS5003;10239;56.820;24.416;2023-12-29T07:43:41;5.00;4.60;2.00
20157;PMS5003;10239;56.820;24.416;2023-12-29T07:46:08;11.80;5.60;1.20
20157;PMS5003;10239;56.820;24.416;2023-12-29T07:48:35;10.00;5.40;2.00
20157;PMS5003;10239;56.820;24.416;2023-12-29T07:51:04;4.20;3.20;2.00
20157;PMS5003;10239;56.820;24.416;2023-12-29T07:53:33;3.60;3.60;1.00
20157;PMS5003;10239;56.820;24.416;2023-12-29T07:56:00;8.80;8.80;4.80
20157;PMS5003;10239;56.820;24.416;2023-12-29T07:58:27;10.20;5.80;2.00
20157;PMS5003;10239;56.820;24.416;2023-12-29T08:00:55;4.80;4.00;1.00
20157;PMS5003;10239;56.820;24.416;2023-12-29T08:03:22;8.20;5.80;4.00
20157;PMS5003;10239;56.820;24.416;2023-12-29T08:05:50;5.00;5.00;3.60
20157;PMS5003;10239;56.820;24.416;2023-12-29T08:08:17;8.40;6.80;2.00
20157;PMS5003;10239;56.820;24.416;2023-12-29T08:10:45;5.60;4.60;2.00
20157;PMS5003;10239;56.820;24.416;2023-12-29T08:13:12;9.00;7.20;4.00
20157;PMS5003;10239;56.820;24.416;2023-12-29T08:15:40;6.80;6.00;4.00
20157;PMS5003;10239;56.820;24.416;2023-12-29T08:18:07;4.00;4.00;0.80
20157;PMS5003;10239;56.820;24.416;2023-12-29T08:20:35;9.00;5.40;2.00
20157;PMS5003;10239;56.820;24.416;2023-12-29T08:23:02;11.60;9.00;4.00
20157;PMS5003;10239;56.820;24.416;2023-12-29T08:25:30;8.80;5.20;4.00
20157;PMS5003;10239;56.820;24.416;2023-12-29T08:27:58;5.80;5.80;3.20
20157;PMS5003;10239;56.820;24.416;2023-12-29T08:30:25;7.80;6.00;4.00
20157;PMS5003;10239;56.820;24.416;2023-12-29T08:32:53;8.40;8.40;4.00
20157;PMS5003;10239;56.820;24.416;2023-12-29T08:35:20;10.40;6.40;4.00
20157;PMS5003;10239;56.820;24.416;2023-12-29T08:37:48;10.80;8.40;2.00
20157;PMS5003;10239;56.820;24.416;2023-12-29T08:40:15;3.20;1.00;0.00
20157;PMS5003;10239;56.820;24.416;2023-12-29T08:42:43;9.60;9.00;4.20
20157;PMS5003;10239;56.820;24.416;2023-12-29T08:45:10;12.00;6.00;2.00
20157;PMS5003;10239;56.820;24.416;2023-12-29T08:47:37;11.60;8.80;4.20
20157;PMS5003;10239;56.820;24.416;2023-12-29T08:50:05;3.20;3.20;2.00
20157;PMS5003;10239;56.820;24.416;2023-12-29T08:52:33;9.80;6.20;3.60
20157;PMS5003;10239;56.820;24.416;2023-12-29T08:55:00;5.00;5.00;1.00
20157;PMS5003;10239;56.820;24.416;2023-12-29T08:57:28;10.20;6.40;4.00
20157;PMS5003;10239;56.820;24.416;2023-12-29T08:59:56;8.00;5.40;4.00
20157;PMS5003;10239;56.820;24.416;2023-12-29T09:02:23;11.20;5.40;4.80
20157;PMS5003;10239;56.820;24.416;2023-12-29T09:04:51;10.20;8.80;4.60
20157;PMS5003;10239;56.820;24.416;2023-12-29T09:07:18;8.60;8.60;4.00
20157;PMS5003;10239;56.820;24.416;2023-12-29T09:09:46;5.60;5.40;3.60
20157;PMS5003;10239;56.820;24.416;2023-12-29T09:12:14;13.00;7.80;2.00
20157;PMS5003;10239;56.820;24.416;2023-12-29T09:14:42;10.20;6.20;4.00
20157;PMS5003;10239;56.820;24.416;2023-12-29T09:17:09;9.80;6.80;4.00
20157;PMS5003;10239;56.820;24.416;2023-12-29T09:19:37;9.40;6.80;4.00
20157;PMS5003;10239;56.820;24.416;2023-12-29T09:22:06;12.20;6.20;4.00
20157;PMS5003;10239;56.820;24.416;2023-12-29T09:24:34;8.20;8.00;3.20
20157;PMS5003;10239;56.820;24.416;2023-12-29T09:27:01;5.00;4.80;2.00
20157;PMS5003;10239;56.820;24.416;2023-12-29T09:29:29;7.00;5.60;4.00
20157;PMS5003;10239;56.820;24.416;2023-12-29T09:31:57;6.00;5.00;2.00
20157;PMS5003;10239;56.820;24.416;2023-12-29T09:34:25;6.40;6.40;4.00
20157;PMS5003;10239;56.820;24.416;2023-12-29T09:36:52;8.80;7.60;3.20
20157;PMS5003;10239;56.820;24.416;2023-12-29T09:39:20;4.00;4.00;2.00
20157;PMS5003;10239;56.820;24.416;2023-12-29T09:41:48;5.60;5.20;2.00
20157;PMS5003;10239;56.820;24.416;2023-12-29T09:44:20;4.20;4.00;1.00
20157;PMS5003;10239;56.820;24.416;2023-12-29T09:46:49;9.00;4.40;2.80
20157;PMS5003;10239;56.820;24.416;2023-12-29T09:49:19;17.00;9.80;2.80
20157;PMS5003;10239;56.820;24.416;2023-12-29T09:51:47;3.60;3.20;1.40
20157;PMS5003;10239;56.820;24.416;2023-12-29T09:54:16;9.40;5.80;2.00
20157;PMS5003;10239;56.820;24.416;2023-12-29T09:56:44;8.00;7.00;4.60
20157;PMS5003;10239;56.820;24.416;2023-12-29T09:59:12;9.60;6.20;2.80
20157;PMS5003;10239;56.820;24.416;2023-12-29T10:01:42;5.60;5.60;4.00
20157;PMS5003;10239;56.820;24.416;2023-12-29T10:04:13;5.60;2.00;0.80
20157;PMS5003;10239;56.820;24.416;2023-12-29T10:06:43;7.00;6.60;4.00
20157;PMS5003;10239;56.820;24.416;2023-12-29T10:09:16;13.20;7.60;4.60
20157;PMS5003;10239;56.820;24.416;2023-12-29T10:11:47;8.40;6.40;3.20
20157;PMS5003;10239;56.820;24.416;2023-12-29T10:14:35;6.60;4.80;2.00
20157;PMS5003;10239;56.820;24.416;2023-12-29T10:17:34;6.80;6.80;4.00
20157;PMS5003;10239;56.820;24.416;2023-12-29T10:23:12;5.00;5.00;2.00
20157;PMS5003;10239;56.820;24.416;2023-12-29T10:25:53;6.40;6.40;4.00
20157;PMS5003;10239;56.820;24.416;2023-12-29T10:28:20;8.00;5.00;1.00
20157;PMS5003;10239;56.820;24.416;2023-12-29T10:30:48;3.60;3.60;1.00
20157;PMS5003;10239;56.820;24.416;2023-12-29T10:33:19;7.60;6.00;2.80
20157;PMS5003;10239;56.820;24.416;2023-12-29T10:35:59;6.80;6.80;3.60
20157;PMS5003;10239;56.820;24.416;2023-12-29T10:38:30;5.40;4.80;2.00
20157;PMS5003;10239;56.820;24.416;2023-12-29T10:41:11;10.00;4.20;2.00
20157;PMS5003;10239;56.820;24.416;2023-12-29T10:43:44;5.00;4.00;1.80
20157;PMS5003;10239;56.820;24.416;2023-12-29T10:46:14;6.60;5.00;3.20
20157;PMS5003;10239;56.820;24.416;2023-12-29T10:48:42;4.80;4.80;2.00
20157;PMS5003;10239;56.820;24.416;2023-12-29T10:51:10;7.00;5.00;3.60
20157;PMS5003;10239;56.820;24.416;2023-12-29T10:53:38;5.60;4.20;2.00
20157;PMS5003;10239;56.820;24.416;2023-12-29T10:56:19;4.20;4.00;2.00
20157;PMS5003;10239;56.820;24.416;2023-12-29T10:59:01;4.80;4.80;2.00
20157;PMS5003;10239;56.820;24.416;2023-12-29T11:01:34;4.40;4.00;2.00
20157;PMS5003;10239;56.820;24.416;2023-12-29T11:04:03;5.20;5.20;2.00
20157;PMS5003;10239;56.820;24.416;2023-12-29T11:06:44;5.40;3.20;1.00
20157;PMS5003;10239;56.820;24.416;2023-12-29T11:09:17;9.20;7.00;3.20
20157;PMS5003;10239;56.820;24.416;2023-12-29T11:11:57;8.20;5.60;4.00
20157;PMS5003;10239;56.820;24.416;2023-12-29T11:14:32;9.20;8.00;3.20
20157;PMS5003;10239;56.820;24.416;2023-12-29T11:17:00;4.40;3.60;1.00
20157;PMS5003;10239;56.820;24.416;2023-12-29T11:19:28;12.80;8.00;4.00
20157;PMS5003;10239;56.820;24.416;2023-12-29T11:21:56;4.60;4.00;1.00
20157;PMS5003;10239;56.820;24.416;2023-12-29T11:24:24;5.40;4.20;1.00
20157;PMS5003;10239;56.820;24.416;2023-12-29T11:27:04;4.80;4.80;1.00
20157;PMS5003;10239;56.820;24.416;2023-12-29T11:29:35;6.80;4.80;2.00
20157;PMS5003;10239;56.820;24.416;2023-12-29T11:32:04;6.40;4.00;2.00
20157;PMS5003;10239;56.820;24.416;2023-12-29T11:34:37;4.60;4.60;1.80
20157;PMS5003;10239;56.820;24.416;2023-12-29T11:37:18;4.60;4.60;1.80
20157;PMS5003;10239;56.820;24.416;2023-12-29T11:40:04;6.80;6.80;4.00
20157;PMS5003;10239;56.820;24.416;2023-12-29T11:42:47;6.40;4.60;1.00
20157;PMS5003;10239;56.820;24.416;2023-12-29T11:45:51;4.80;3.20;1.00
20157;PMS5003;10239;56.820;24.416;2023-12-29T11:48:12;9.00;7.20;2.00
20157;PMS5003;10239;56.820;24.416;2023-12-29T11:50:40;5.20;4.40;1.60
20157;PMS5003;10239;56.820;24.416;2023-12-29T11:53:08;8.20;8.00;3.60
20157;PMS5003;10239;56.820;24.416;2023-12-29T11:55:36;6.00;6.00;2.00
20157;PMS5003;10239;56.820;24.416;2023-12-29T11:58:26;8.60;4.80;1.20
20157;PMS5003;10239;56.820;24.416;2023-12-29T12:00:56;5.40;5.40;2.00
20157;PMS5003;10239;56.820;24.416;2023-12-29T12:03:25;5.80;4.00;2.00
20157;PMS5003;10239;56.820;24.416;2023-12-29T12:05:55;6.00;4.00;1.60
20157;PMS5003;10239;56.820;24.416;2023-12-29T12:08:35;7.20;5.60;2.80
20157;PMS5003;10239;56.820;24.416;2023-12-29T12:13:55;7.20;5.00;2.00
20157;PMS5003;10239;56.820;24.416;2023-12-29T12:19:12;12.20;5.40;4.00
20157;PMS5003;10239;56.820;24.416;2023-12-29T12:21:40;4.60;4.60;1.60
20157;PMS5003;10239;56.820;24.416;2023-12-29T12:24:08;7.60;5.60;2.00
20157;PMS5003;10239;56.820;24.416;2023-12-29T12:26:35;8.00;5.00;2.80
20157;PMS5003;10239;56.820;24.416;2023-12-29T12:29:03;4.80;4.00;1.00
20157;PMS5003;10239;56.820;24.416;2023-12-29T12:31:31;8.80;5.00;2.00
20157;PMS5003;10239;56.820;24.416;2023-12-29T12:33:59;7.00;5.40;2.40
20157;PMS5003;10239;56.820;24.416;2023-12-29T12:36:35;8.00;5.40;1.80
20157;PMS5003;10239;56.820;24.416;2023-12-29T12:39:16;6.00;4.40;2.20
20157;PMS5003;10239;56.820;24.416;2023-12-29T12:41:44;8.80;4.80;1.00
20157;PMS5003;10239;56.820;24.416;2023-12-29T12:44:12;8.00;4.00;2.00
20157;PMS5003;10239;56.820;24.416;2023-12-29T12:46:44;9.60;5.40;2.00
20157;PMS5003;10239;56.820;24.416;2023-12-29T12:49:15;7.40;5.80;1.80
20157;PMS5003;10239;56.820;24.416;2023-12-29T12:51:43;4.80;4.80;2.80
20157;PMS5003;10239;56.820;24.416;2023-12-29T12:54:11;4.60;4.00;1.00
20157;PMS5003;10239;56.820;24.416;2023-12-29T12:56:44;6.00;4.60;2.80
20157;PMS5003;10239;56.820;24.416;2023-12-29T12:59:12;5.00;4.00;2.00
20157;PMS5003;10239;56.820;24.416;2023-12-29T13:01:40;4.00;2.00;0.80
20157;PMS5003;10239;56.820;24.416;2023-12-29T13:04:09;7.80;4.20;1.00
20157;PMS5003;10239;56.820;24.416;2023-12-29T13:06:39;4.00;4.00;1.00
20157;PMS5003;10239;56.820;24.416;2023-12-29T13:09:08;5.00;4.00;1.60
20157;PMS5003;10239;56.820;24.416;2023-12-29T13:11:40;4.60;3.60;1.80
20157;PMS5003;10239;56.820;24.416;2023-12-29T13:14:07;5.00;5.00;2.00
20157;PMS5003;10239;56.820;24.416;2023-12-29T13:16:35;5.80;2.00;1.00
20157;PMS5003;10239;56.820;24.416;2023-12-29T13:19:19;6.40;4.60;1.00
20157;PMS5003;10239;56.820;24.416;2023-12-29T13:21:53;4.80;4.20;1.20
20157;PMS5003;10239;56.820;24.416;2023-12-29T13:24:22;4.40;3.20;1.60
20157;PMS5003;10239;56.820;24.416;2023-12-29T13:26:55;5.00;5.00;1.00
20157;PMS5003;10239;56.820;24.416;2023-12-29T13:29:25;6.00;2.40;1.00
20157;PMS5003;10239;56.820;24.416;2023-12-29T13:31:58;2.40;1.40;1.00
20157;PMS5003;10239;56.820;24.416;2023-12-29T13:34:33;4.00;4.00;1.00
20157;PMS5003;10239;56.820;24.416;2023-12-29T13:40:22;2.80;2.80;1.00
20157;PMS5003;10239;56.820;24.416;2023-12-29T13:42:57;3.20;3.20;1.20
20157;PMS5003;10239;56.820;24.416;2023-12-29T13:45:31;3.60;1.00;0.80
20157;PMS5003;10239;56.820;24.416;2023-12-29T13:47:58;2.00;2.00;1.00
20157;PMS5003;10239;56.820;24.416;2023-12-29T13:50:28;2.00;2.00;1.00
20157;PMS5003;10239;56.820;24.416;2023-12-29T13:52:56;2.40;1.60;1.00
20157;PMS5003;10239;56.820;24.416;2023-12-29T13:55:24;2.00;2.00;0.80
20157;PMS5003;10239;56.820;24.416;2023-12-29T13:57:52;5.00;1.80;1.00
20157;PMS5003;10239;56.820;24.416;2023-12-29T14:00:20;3.20;3.20;1.00
20157;PMS5003;10239;56.820;24.416;2023-12-29T14:08:54;2.20;1.80;1.40
20157;PMS5003;10239;56.820;24.416;2023-12-29T14:11:14;2.00;2.00;1.00
20157;PMS5003;10239;56.820;24.416;2023-12-29T14:13:42;4.80;2.00;1.00
20157;PMS5003;10239;56.820;24.416;2023-12-29T14:16:16;3.20;1.20;0.00
20157;PMS5003;10239;56.820;24.416;2023-12-29T14:18:54;3.80;3.80;1.00
20157;PMS5003;10239;56.820;24.416;2023-12-29T14:21:28;2.80;2.80;1.00
20157;PMS5003;10239;56.820;24.416;2023-12-29T14:26:53;4.40;2.00;0.00
20157;PMS5003;10239;56.820;24.416;2023-12-29T14:29:20;2.80;2.80;1.00
20157;PMS5003;10239;56.820;24.416;2023-12-29T14:31:48;3.80;3.80;2.00
20157;PMS5003;10239;56.820;24.416;2023-12-29T14:34:21;2.20;2.20;1.00
20157;PMS5003;10239;56.820;24.416;2023-12-29T14:36:49;3.60;3.20;1.00
20157;PMS5003;10239;56.820;24.416;2023-12-29T14:39:16;10.80;2.40;0.00
20157;PMS5003;10239;56.820;24.416;2023-12-29T14:41:44;4.00;4.00;1.00
20157;PMS5003;10239;56.820;24.416;2023-12-29T14:44:12;6.40;4.20;1.00